createdAt,value
2019-05-07T00:01:58.604Z,6.80
2019-05-07T00:04:28.351Z,6.76
2019-05-07T00:06:58.221Z,6.71
2019-05-07T00:09:27.940Z,6.70
2019-05-07T00:11:57.653Z,6.72
2019-05-07T00:14:28.056Z,6.71
2019-05-07T00:16:57.754Z,6.67
2019-05-07T00:19:27.410Z,6.67
2019-05-07T00:21:57.135Z,6.67
2019-05-07T00:24:26.817Z,6.67
2019-05-07T00:26:56.504Z,6.64
2019-05-07T00:29:26.292Z,6.61
2019-05-07T00:31:55.946Z,6.59
2019-05-07T00:34:32.733Z,6.57
2019-05-07T00:37:07.494Z,6.55
2019-05-07T00:39:56.225Z,6.55
2019-05-07T00:42:32.715Z,6.55
2019-05-07T00:45:23.826Z,6.53
2019-05-07T00:47:52.956Z,6.51
2019-05-07T00:50:27.870Z,6.47
2019-05-07T00:52:57.644Z,6.44
2019-05-07T00:55:27.331Z,6.44
2019-05-07T00:57:57.002Z,6.45
2019-05-07T01:00:26.848Z,6.45
2019-05-07T01:02:56.649Z,6.47
2019-05-07T01:05:26.389Z,6.47
2019-05-07T01:07:56.064Z,6.42
2019-05-07T01:10:25.757Z,6.39
2019-05-07T01:12:55.511Z,6.40
2019-05-07T01:15:31.230Z,6.41
2019-05-07T01:17:56.552Z,6.41
2019-05-07T01:20:26.216Z,6.40
2019-05-07T01:22:56.104Z,6.44
2019-05-07T01:25:25.801Z,6.42
2019-05-07T01:27:56.833Z,6.44
2019-05-07T01:30:26.559Z,6.48
2019-05-07T01:33:02.827Z,6.47
2019-05-07T01:35:50.385Z,6.47
2019-05-07T01:38:20.041Z,6.46
2019-05-07T01:40:51.989Z,6.41
2019-05-07T01:43:22.739Z,6.37
2019-05-07T01:45:53.130Z,6.35
2019-05-07T01:48:23.176Z,6.31
2019-05-07T01:50:53.231Z,6.28
2019-05-07T01:53:22.999Z,6.26
2019-05-07T01:55:52.658Z,6.26
2019-05-07T01:58:22.382Z,6.27
2019-05-07T02:00:53.214Z,6.27
2019-05-07T02:03:33.371Z,6.26
2019-05-07T02:06:09.540Z,6.22
2019-05-07T02:08:44.977Z,6.20
2019-05-07T02:11:16.840Z,6.16
2019-05-07T02:13:46.499Z,6.17
2019-05-07T02:16:16.204Z,6.13
2019-05-07T02:18:45.843Z,6.04
2019-05-07T02:21:15.579Z,5.97
2019-05-07T02:23:45.221Z,5.90
2019-05-07T02:26:15.018Z,5.81
2019-05-07T02:28:44.690Z,5.71
2019-05-07T02:31:15.242Z,5.64
2019-05-07T02:33:45.135Z,5.56
2019-05-07T02:36:14.929Z,5.50
2019-05-07T02:38:52.829Z,5.43
2019-05-07T02:41:24.999Z,5.35
2019-05-07T02:43:54.656Z,5.28
2019-05-07T02:46:36.316Z,5.23
2019-05-07T02:49:23.838Z,5.20
2019-05-07T02:51:59.066Z,5.15
2019-05-07T02:54:33.721Z,5.09
2019-05-07T02:57:03.533Z,5.02
2019-05-07T02:59:33.863Z,4.96
2019-05-07T03:02:03.838Z,4.90
2019-05-07T03:04:33.557Z,4.80
2019-05-07T03:07:04.081Z,4.72
2019-05-07T03:09:34.974Z,4.64
2019-05-07T03:12:04.857Z,4.58
2019-05-07T03:14:34.676Z,4.56
2019-05-07T03:17:06.303Z,4.55
2019-05-07T03:19:37.687Z,4.51
2019-05-07T03:22:07.510Z,4.50
2019-05-07T03:25:03.252Z,4.46
2019-05-07T03:27:34.081Z,4.40
2019-05-07T03:30:36.619Z,4.37
2019-05-07T03:33:36.129Z,4.35
2019-05-07T03:36:07.362Z,4.32
2019-05-07T03:38:34.556Z,4.30
2019-05-07T03:41:04.315Z,4.33
2019-05-07T03:43:34.027Z,4.37
2019-05-07T03:46:09.448Z,4.36
2019-05-07T03:48:40.025Z,4.38
2019-05-07T03:51:12.932Z,4.40
2019-05-07T03:53:43.657Z,4.44
2019-05-07T03:56:13.281Z,4.45
2019-05-07T03:58:43.751Z,4.48
2019-05-07T04:01:13.868Z,4.51
2019-05-07T04:03:44.789Z,4.55
2019-05-07T04:06:14.674Z,4.61
2019-05-07T04:08:44.416Z,4.72
2019-05-07T04:11:14.301Z,4.96
2019-05-07T04:13:45.015Z,5.34
2019-05-07T04:16:14.955Z,5.69
2019-05-07T04:18:44.909Z,6.04
2019-05-07T04:21:14.601Z,6.38
2019-05-07T04:23:44.362Z,6.69
2019-05-07T04:26:33.987Z,6.97
2019-05-07T04:29:06.586Z,7.31
2019-05-07T04:31:43.450Z,7.71
2019-05-07T04:34:18.075Z,8.03
2019-05-07T04:36:49.350Z,8.23
2019-05-07T04:39:28.244Z,8.54
2019-05-07T04:41:57.922Z,8.77
2019-05-07T04:44:27.604Z,9.09
2019-05-07T04:46:57.318Z,9.43
2019-05-07T04:49:27.225Z,9.64
2019-05-07T04:52:12.487Z,9.79
2019-05-07T04:54:43.667Z,9.79
2019-05-07T04:57:28.094Z,10.01
2019-05-07T05:00:02.930Z,10.46
2019-05-07T05:02:39.753Z,10.80
2019-05-07T05:05:12.710Z,10.94
2019-05-07T05:07:43.107Z,11.14
2019-05-07T05:10:13.527Z,11.57
2019-05-07T05:12:43.192Z,11.81
2019-05-07T05:15:13.275Z,11.76
2019-05-07T05:17:50.116Z,11.82
2019-05-07T05:20:15.805Z,12.01
2019-05-07T05:22:53.428Z,12.05
2019-05-07T05:25:28.036Z,12.09
2019-05-07T05:27:57.717Z,12.38
2019-05-07T05:30:34.597Z,12.61
2019-05-07T05:33:04.600Z,12.73
2019-05-07T05:35:34.388Z,13.01
2019-05-07T05:38:04.185Z,12.96
2019-05-07T05:40:33.934Z,13.03
2019-05-07T05:43:12.982Z,12.91
2019-05-07T05:45:43.984Z,13.12
2019-05-07T05:48:13.898Z,13.27
2019-05-07T05:50:53.643Z,13.41
2019-05-07T05:53:43.329Z,13.62
2019-05-07T05:56:28.247Z,14.20
2019-05-07T05:59:05.497Z,14.84
2019-05-07T06:01:56.885Z,15.03
2019-05-07T06:04:37.097Z,15.48
2019-05-07T06:07:15.990Z,16.20
2019-05-07T06:10:03.325Z,16.56
2019-05-07T06:13:01.793Z,16.44
2019-05-07T06:15:49.186Z,16.64
2019-05-07T06:18:52.858Z,17.05
2019-05-07T06:21:32.144Z,16.67
2019-05-07T06:24:03.463Z,16.91
2019-05-07T06:26:33.309Z,17.17
2019-05-07T06:29:03.033Z,17.17
2019-05-07T06:31:32.862Z,17.16
2019-05-07T06:34:03.561Z,17.77
2019-05-07T06:36:34.967Z,18.04
2019-05-07T06:39:22.420Z,18.17
2019-05-07T06:42:09.668Z,18.57
2019-05-07T06:44:39.401Z,18.39
2019-05-07T06:47:09.183Z,18.67
2019-05-07T06:49:38.871Z,17.91
2019-05-07T06:52:08.549Z,17.53
2019-05-07T06:54:38.215Z,17.93
2019-05-07T06:57:07.886Z,18.03
2019-05-07T06:59:43.143Z,18.53
2019-05-07T07:02:34.788Z,18.95
2019-05-07T07:05:12.526Z,19.35
2019-05-07T07:08:02.301Z,19.90
2019-05-07T07:10:52.131Z,19.96
2019-05-07T07:13:23.371Z,19.93
2019-05-07T07:15:53.051Z,19.77
2019-05-07T07:18:23.204Z,19.38
2019-05-07T07:24:29.163Z,20.03
2019-05-07T07:27:43.041Z,20.92
2019-05-07T07:30:26.812Z,20.96
2019-05-07T07:32:57.536Z,18.89
2019-05-07T07:35:27.228Z,19.88
2019-05-07T07:37:56.935Z,20.69
2019-05-07T07:40:35.403Z,20.83
2019-05-07T07:43:07.200Z,21.19
2019-05-07T07:45:36.718Z,21.02
2019-05-07T07:48:06.456Z,20.28
2019-05-07T07:50:36.217Z,19.73
2019-05-07T07:53:05.905Z,20.59
2019-05-07T07:55:42.614Z,20.45
2019-05-07T07:58:34.257Z,19.59
2019-05-07T08:01:12.235Z,16.71
2019-05-07T08:03:41.945Z,14.47
2019-05-07T08:06:12.151Z,15.95
2019-05-07T08:08:42.494Z,17.87
2019-05-07T08:11:12.846Z,19.17
2019-05-07T08:13:42.615Z,19.81
2019-05-07T08:16:12.981Z,19.55
2019-05-07T08:18:43.683Z,18.38
2019-05-07T08:21:13.616Z,19.64
2019-05-07T08:23:43.342Z,17.56
2019-05-07T08:26:13.129Z,16.19
2019-05-07T08:28:42.817Z,16.40
2019-05-07T08:31:32.048Z,18.19
2019-05-07T08:34:09.343Z,19.84
2019-05-07T08:36:39.037Z,20.68
2019-05-07T08:39:09.186Z,21.01
2019-05-07T08:41:38.946Z,18.94
2019-05-07T08:44:15.587Z,17.77
2019-05-07T08:47:18.657Z,18.38
2019-05-07T08:49:48.328Z,19.96
2019-05-07T08:52:18.081Z,20.88
2019-05-07T08:54:47.753Z,21.47
2019-05-07T08:57:17.590Z,21.88
2019-05-07T09:00:00.091Z,20.09
2019-05-07T09:02:18.884Z,20.13
2019-05-07T09:08:02.238Z,20.98
2019-05-07T09:10:32.617Z,19.04
2019-05-07T09:13:02.892Z,18.85
2019-05-07T09:15:32.526Z,19.96
2019-05-07T09:18:02.311Z,21.23
2019-05-07T09:20:32.287Z,21.47
2019-05-07T09:23:02.254Z,20.96
2019-05-07T09:25:35.424Z,18.85
2019-05-07T09:28:05.311Z,17.36
2019-05-07T09:31:03.387Z,18.57
2019-05-07T09:33:42.994Z,18.73
2019-05-07T09:36:22.617Z,16.71
2019-05-07T09:38:56.947Z,17.87
2019-05-07T09:41:29.002Z,19.64
2019-05-07T09:43:59.480Z,22.21
2019-05-07T09:46:29.307Z,22.21
2019-05-07T09:48:59.086Z,22.14
2019-05-07T09:51:28.869Z,22.14
2019-05-07T09:53:58.556Z,22.70
2019-05-07T09:56:29.331Z,23.02
2019-05-07T09:58:59.167Z,22.76
2019-05-07T10:01:28.903Z,22.64
2019-05-07T10:03:58.954Z,22.70
2019-05-07T10:06:28.784Z,21.95
2019-05-07T10:09:53.982Z,20.10
2019-05-07T10:12:29.843Z,20.94
2019-05-07T10:14:59.529Z,22.80
2019-05-07T10:17:35.835Z,22.78
2019-05-07T10:20:19.374Z,23.11
2019-05-07T10:22:42.835Z,23.52
2019-05-07T10:25:14.197Z,23.53
2019-05-07T10:27:44.284Z,23.75
2019-05-07T10:30:14.117Z,23.21
2019-05-07T10:32:44.125Z,23.08
2019-05-07T10:35:14.603Z,22.85
2019-05-07T10:37:44.559Z,22.21
2019-05-07T10:40:15.306Z,20.18
2019-05-07T10:42:44.992Z,21.97
2019-05-07T10:45:32.801Z,21.97
2019-05-07T10:48:15.590Z,21.56
2019-05-07T10:50:47.136Z,21.56
2019-05-07T10:53:16.901Z,21.65
2019-05-07T10:55:46.584Z,22.05
2019-05-07T10:58:16.329Z,22.84
2019-05-07T11:00:46.044Z,22.81
2019-05-07T11:03:17.428Z,22.75
2019-05-07T11:05:47.204Z,22.69
2019-05-07T11:08:37.513Z,22.98
2019-05-07T11:11:07.349Z,22.83
2019-05-07T11:13:37.275Z,21.18
2019-05-07T11:17:59.233Z,20.72
2019-05-07T11:20:29.231Z,20.32
2019-05-07T11:22:59.083Z,18.76
2019-05-07T11:25:30.097Z,19.68
2019-05-07T11:27:59.956Z,20.55
2019-05-07T11:30:31.914Z,22.16
2019-05-07T11:33:02.642Z,22.16
2019-05-07T11:35:32.700Z,22.42
2019-05-07T11:38:16.728Z,21.42
2019-05-07T11:40:34.890Z,20.00
2019-05-07T11:43:13.928Z,18.23
2019-05-07T11:45:54.454Z,17.12
2019-05-07T11:48:25.176Z,18.35
2019-05-07T11:51:15.227Z,19.74
2019-05-07T11:54:02.726Z,20.80
2019-05-07T11:56:32.943Z,21.66
2019-05-07T11:59:02.915Z,21.56
2019-05-07T12:01:43.854Z,21.56
2019-05-07T12:04:04.643Z,21.72
2019-05-07T12:06:34.830Z,21.35
2019-05-07T12:09:07.368Z,21.33
2019-05-07T12:11:37.274Z,21.67
2019-05-07T12:14:07.107Z,21.94
2019-05-07T12:16:36.882Z,22.00
2019-05-07T12:19:06.740Z,22.06
2019-05-07T12:21:36.491Z,21.54
2019-05-07T12:24:06.255Z,20.32
2019-05-07T12:26:37.589Z,20.71
2019-05-07T12:29:07.407Z,21.07
2019-05-07T12:31:55.640Z,21.29
2019-05-07T12:34:31.893Z,20.89
2019-05-07T12:37:01.861Z,19.11
2019-05-07T12:39:31.962Z,17.67
2019-05-07T12:42:01.755Z,16.71
2019-05-07T12:44:31.996Z,16.15
2019-05-07T12:47:02.005Z,15.83
2019-05-07T12:49:32.455Z,16.70
2019-05-07T12:52:12.675Z,17.47
2019-05-07T12:54:48.267Z,17.82
2019-05-07T12:57:18.010Z,17.74
2019-05-07T12:59:49.616Z,17.24
2019-05-07T13:02:52.043Z,17.10
2019-05-07T13:05:21.601Z,17.05
2019-05-07T13:07:55.331Z,16.75
2019-05-07T13:10:25.064Z,16.04
2019-05-07T13:12:54.873Z,15.90
2019-05-07T13:15:28.046Z,15.99
2019-05-07T13:17:56.787Z,16.05
2019-05-07T13:20:26.661Z,16.22
2019-05-07T13:22:56.356Z,16.20
2019-05-07T13:25:28.414Z,16.07
2019-05-07T13:27:57.420Z,15.96
2019-05-07T13:30:27.316Z,16.08
2019-05-07T13:32:58.654Z,16.37
2019-05-07T13:35:28.487Z,16.39
2019-05-07T13:38:15.764Z,16.06
2019-05-07T13:40:57.783Z,15.83
2019-05-07T13:43:32.085Z,15.40
2019-05-07T13:48:49.671Z,15.06
2019-05-07T13:51:21.706Z,14.82
2019-05-07T13:53:52.839Z,14.67
2019-05-07T13:56:23.038Z,14.62
2019-05-07T13:58:52.791Z,14.65
2019-05-07T14:01:44.414Z,14.73
2019-05-07T14:04:15.131Z,14.84
2019-05-07T14:06:45.342Z,15.13
2019-05-07T14:09:23.845Z,15.34
2019-05-07T14:11:52.856Z,15.59
2019-05-07T14:14:23.878Z,15.73
2019-05-07T14:16:53.870Z,15.49
2019-05-07T14:19:23.558Z,15.48
2019-05-07T14:21:53.266Z,15.48
2019-05-07T14:24:23.955Z,15.60
2019-05-07T14:26:53.639Z,15.84
2019-05-07T14:29:24.893Z,15.84
2019-05-07T14:32:12.798Z,15.68
2019-05-07T14:37:09.452Z,15.02
2019-05-07T14:39:39.125Z,15.23
2019-05-07T14:42:12.967Z,15.38
2019-05-07T14:44:49.668Z,15.52
2019-05-07T14:47:22.293Z,15.65
2019-05-07T14:49:52.890Z,15.78
2019-05-07T14:52:32.613Z,15.68
2019-05-07T14:54:54.950Z,15.72
2019-05-07T14:57:25.161Z,15.65
2019-05-07T14:59:55.550Z,15.46
2019-05-07T15:02:25.419Z,15.52
2019-05-07T15:04:55.272Z,15.50
2019-05-07T15:07:25.072Z,15.27
2019-05-07T15:09:54.948Z,15.26
2019-05-07T15:12:25.038Z,15.15
2019-05-07T15:14:54.988Z,14.86
2019-05-07T15:17:33.230Z,14.78
2019-05-07T15:20:04.650Z,14.86
2019-05-07T15:22:49.870Z,14.95
2019-05-07T15:25:19.409Z,15.06
2019-05-07T15:27:52.648Z,15.11
2019-05-07T15:30:23.785Z,15.11
2019-05-07T15:32:53.739Z,15.20
2019-05-07T15:35:23.779Z,15.26
2019-05-07T15:37:53.975Z,15.29
2019-05-07T15:40:24.249Z,15.49
2019-05-07T15:42:54.388Z,15.65
2019-05-07T15:45:24.331Z,15.50
2019-05-07T15:47:55.841Z,15.28
2019-05-07T15:50:28.778Z,15.05
2019-05-07T15:53:05.664Z,14.78
2019-05-07T15:55:35.756Z,14.59
2019-05-07T15:58:05.749Z,14.51
2019-05-07T16:00:36.894Z,14.47
2019-05-07T16:03:12.048Z,14.47
2019-05-07T16:05:42.530Z,14.32
2019-05-07T16:08:14.071Z,14.20
2019-05-07T16:10:44.056Z,14.16
2019-05-07T16:13:16.503Z,13.99
2019-05-07T16:15:46.339Z,14.08
2019-05-07T16:18:19.454Z,14.45
2019-05-07T16:20:49.189Z,14.69
2019-05-07T16:23:18.882Z,14.93
2019-05-07T16:25:49.450Z,15.05
2019-05-07T16:28:21.780Z,15.01
2019-05-07T16:30:52.133Z,14.98
2019-05-07T16:33:22.268Z,14.97
2019-05-07T16:35:52.041Z,14.89
2019-05-07T16:38:22.175Z,14.82
2019-05-07T16:40:52.436Z,14.77
2019-05-07T16:43:22.230Z,14.62
2019-05-07T16:45:51.991Z,14.56
2019-05-07T16:48:23.237Z,14.48
2019-05-07T16:50:53.021Z,14.41
2019-05-07T16:53:29.621Z,14.32
2019-05-07T16:55:54.198Z,14.26
2019-05-07T16:58:34.477Z,14.24
2019-05-07T17:01:14.329Z,14.21
2019-05-07T17:03:52.074Z,14.15
2019-05-07T17:06:25.042Z,14.03
2019-05-07T17:08:57.994Z,13.99
2019-05-07T17:14:54.263Z,13.81
2019-05-07T17:17:27.329Z,13.75
2019-05-07T17:19:57.293Z,13.75
2019-05-07T17:22:27.144Z,13.68
2019-05-07T17:24:56.838Z,13.61
2019-05-07T17:27:26.725Z,13.53
2019-05-07T17:29:56.560Z,13.47
2019-05-07T17:32:26.245Z,13.42
2019-05-07T17:34:56.872Z,13.36
2019-05-07T17:37:26.812Z,13.30
2019-05-07T17:39:57.473Z,13.21
2019-05-07T17:42:27.268Z,13.10
2019-05-07T17:44:56.938Z,12.99
2019-05-07T17:47:27.591Z,12.92
2019-05-07T17:49:57.328Z,12.83
2019-05-07T17:52:27.105Z,12.76
2019-05-07T17:54:57.123Z,12.71
2019-05-07T17:57:26.827Z,12.65
2019-05-07T17:59:56.559Z,12.57
2019-05-07T18:02:34.086Z,12.51
2019-05-07T18:05:04.330Z,12.43
2019-05-07T18:07:36.859Z,12.38
2019-05-07T18:10:07.339Z,12.31
2019-05-07T18:12:37.668Z,12.26
2019-05-07T18:15:07.502Z,12.22
2019-05-07T18:17:43.349Z,12.15
2019-05-07T18:20:13.241Z,12.10
2019-05-07T18:22:42.917Z,12.04
2019-05-07T18:25:12.717Z,11.99
2019-05-07T18:27:42.433Z,11.84
2019-05-07T18:30:12.898Z,11.70
2019-05-07T18:32:46.750Z,11.54
2019-05-07T18:35:16.727Z,11.37
2019-05-07T18:37:52.650Z,11.26
2019-05-07T18:40:22.721Z,11.13
2019-05-07T18:42:52.670Z,11.05
2019-05-07T18:45:22.299Z,11.00
2019-05-07T18:48:56.865Z,10.94
2019-05-07T18:51:58.964Z,10.89
2019-05-07T18:54:31.166Z,10.74
2019-05-07T18:57:02.153Z,10.52
2019-05-07T19:01:32.701Z,10.32
2019-05-07T19:04:03.663Z,10.10
2019-05-07T19:06:33.399Z,9.75
2019-05-07T19:09:03.196Z,9.60
2019-05-07T19:11:34.614Z,9.55
2019-05-07T19:14:04.511Z,9.55
2019-05-07T19:16:34.491Z,9.50
2019-05-07T19:19:04.250Z,9.46
2019-05-07T19:21:34.020Z,9.37
2019-05-07T19:24:03.791Z,9.33
2019-05-07T19:26:33.512Z,9.23
2019-05-07T19:29:03.213Z,9.13
2019-05-07T19:31:34.134Z,9.08
2019-05-07T19:34:04.547Z,8.95
2019-05-07T19:36:34.179Z,8.83
2019-05-07T19:39:05.509Z,8.79
2019-05-07T19:41:36.111Z,8.75
2019-05-07T19:44:05.962Z,8.72
2019-05-07T19:46:37.267Z,8.66
2019-05-07T19:53:02.913Z,8.33
2019-05-07T19:55:52.601Z,8.18
2019-05-07T19:58:23.070Z,8.06
2019-05-07T20:00:57.033Z,7.94
2019-05-07T20:03:56.311Z,7.78
2019-05-07T20:06:26.476Z,7.61
2019-05-07T20:09:09.135Z,7.42
2019-05-07T20:11:35.642Z,7.32
2019-05-07T20:14:09.115Z,7.23
2019-05-07T20:16:39.509Z,7.17
2019-05-07T20:19:09.254Z,7.03
2019-05-07T20:21:40.857Z,6.85
2019-05-07T20:24:12.488Z,6.68
2019-05-07T20:26:43.176Z,6.59
2019-05-07T20:29:13.230Z,6.66
2019-05-07T20:31:43.648Z,6.76
2019-05-07T20:34:13.321Z,6.89
2019-05-07T20:36:43.210Z,6.92
2019-05-07T20:39:13.228Z,6.91
2019-05-07T20:41:43.236Z,6.88
2019-05-07T20:44:12.897Z,6.86
2019-05-07T20:46:42.569Z,6.91
2019-05-07T20:49:13.067Z,6.94
2019-05-07T20:51:43.203Z,6.93
2019-05-07T20:54:32.461Z,6.86
2019-05-07T20:57:07.895Z,6.82
2019-05-07T20:59:37.608Z,6.80
2019-05-07T21:02:07.426Z,6.83
2019-05-07T21:04:37.091Z,6.81
2019-05-07T21:07:06.768Z,6.78
2019-05-07T21:09:36.424Z,6.79
2019-05-07T21:12:06.266Z,6.76
2019-05-07T21:14:35.969Z,6.70
2019-05-07T21:17:05.642Z,6.58
2019-05-07T21:19:35.312Z,6.44
2019-05-07T21:22:05.094Z,6.39
2019-05-07T21:24:34.746Z,6.33
2019-05-07T21:27:04.451Z,6.32
2019-05-07T21:29:34.112Z,6.26
2019-05-07T21:32:03.828Z,6.24
2019-05-07T21:34:33.517Z,6.27
2019-05-07T21:37:03.486Z,6.27
2019-05-07T21:39:33.277Z,6.25
2019-05-07T21:42:02.972Z,6.27
2019-05-07T21:44:32.760Z,6.29
2019-05-07T21:47:03.903Z,6.35
2019-05-07T21:49:33.651Z,6.42
2019-05-07T21:52:03.505Z,6.45
2019-05-07T21:54:38.972Z,6.44
2019-05-07T21:57:40.617Z,6.35
2019-05-07T22:00:22.108Z,6.27
2019-05-07T22:02:53.576Z,6.16
2019-05-07T22:05:23.240Z,6.13
2019-05-07T22:07:54.449Z,6.14
2019-05-07T22:10:24.254Z,6.16
2019-05-07T22:12:54.655Z,6.16
2019-05-07T22:15:24.506Z,6.15
2019-05-07T22:17:54.170Z,6.18
2019-05-07T22:20:23.887Z,6.18
2019-05-07T22:22:53.558Z,6.16
2019-05-07T22:25:23.227Z,6.10
2019-05-07T22:27:54.518Z,6.09
2019-05-07T22:30:34.189Z,6.10
2019-05-07T22:33:08.735Z,5.99
2019-05-07T22:35:42.311Z,5.88
2019-05-07T22:38:32.208Z,5.89
2019-05-07T22:41:02.913Z,5.94
2019-05-07T22:43:34.202Z,5.96
2019-05-07T22:46:04.020Z,5.99
2019-05-07T22:48:33.690Z,5.95
2019-05-07T22:51:03.461Z,5.90
2019-05-07T22:53:33.570Z,5.88
2019-05-07T22:56:03.421Z,5.90
2019-05-07T22:58:37.293Z,5.91
2019-05-07T23:01:09.801Z,5.92
2019-05-07T23:03:39.469Z,5.95
2019-05-07T23:06:09.133Z,5.99
2019-05-07T23:08:42.158Z,6.00
2019-05-07T23:11:12.471Z,5.96
2019-05-07T23:13:43.300Z,5.93
2019-05-07T23:16:13.072Z,5.93
2019-05-07T23:18:43.096Z,5.91
2019-05-07T23:21:12.788Z,5.80
2019-05-07T23:23:42.471Z,5.74
2019-05-07T23:26:14.794Z,5.74
2019-05-07T23:28:43.699Z,5.74
2019-05-07T23:31:13.366Z,5.53
2019-05-07T23:33:43.039Z,5.10
2019-05-07T23:36:12.984Z,4.70
2019-05-07T23:38:42.876Z,4.47
2019-05-07T23:41:34.218Z,4.35
2019-05-07T23:44:14.914Z,4.31
2019-05-07T23:46:45.141Z,4.25
2019-05-07T23:49:14.907Z,4.11
2019-05-07T23:51:44.936Z,4.01
2019-05-07T23:54:14.619Z,3.91
2019-05-07T23:56:44.346Z,3.87
2019-05-07T23:59:15.046Z,3.86
